createdAt,value
2022-09-23T00:01:22.397Z,4.91
2022-09-23T00:03:52.479Z,4.91
2022-09-23T00:06:23.846Z,4.89
2022-09-23T00:08:52.948Z,4.81
2022-09-23T00:11:28.165Z,4.77
2022-09-23T00:13:59.937Z,4.77
2022-09-23T00:16:35.398Z,4.76
2022-09-23T00:19:04.850Z,4.77
2022-09-23T00:21:31.872Z,4.78
2022-09-23T00:23:59.133Z,4.79
2022-09-23T00:26:26.129Z,4.81
2022-09-23T00:28:53.296Z,4.77
2022-09-23T00:31:26.126Z,4.74
2022-09-23T00:34:00.684Z,4.71
2022-09-23T00:36:32.244Z,4.73
2022-09-23T00:39:00.086Z,4.71
2022-09-23T00:41:27.760Z,4.68
2022-09-23T00:43:59.827Z,4.63
2022-09-23T00:46:43.588Z,4.61
2022-09-23T00:49:30.252Z,4.58
2022-09-23T00:52:15.255Z,4.56
2022-09-23T00:54:46.308Z,4.57
2022-09-23T00:57:20.031Z,4.45
2022-09-23T00:59:50.879Z,4.28
2022-09-23T01:02:23.888Z,4.21
2022-09-23T01:04:51.694Z,4.22
2022-09-23T01:07:19.257Z,4.23
2022-09-23T01:09:49.650Z,4.27
2022-09-23T01:12:56.442Z,4.30
2022-09-23T01:16:34.455Z,4.20
2022-09-23T01:19:57.108Z,4.15
2022-09-23T01:23:35.430Z,4.14
2022-09-23T01:26:49.238Z,4.12
2022-09-23T01:30:02.938Z,4.04
2022-09-23T01:33:24.738Z,4.03
2022-09-23T01:36:41.460Z,4.03
2022-09-23T01:40:20.332Z,4.00
2022-09-23T01:43:11.686Z,4.02
2022-09-23T01:45:56.961Z,4.01
2022-09-23T01:48:51.836Z,4.00
2022-09-23T01:51:38.733Z,3.99
2022-09-23T01:54:42.902Z,3.94
2022-09-23T01:57:55.216Z,3.90
2022-09-23T02:00:27.065Z,3.85
2022-09-23T02:03:07.025Z,3.85
2022-09-23T02:05:56.995Z,3.87
2022-09-23T02:08:37.781Z,3.82
2022-09-23T02:11:15.345Z,3.78
2022-09-23T02:14:05.751Z,3.83
2022-09-23T02:16:51.442Z,3.80
2022-09-23T02:19:34.280Z,3.78
2022-09-23T02:22:20.672Z,3.78
2022-09-23T02:24:49.671Z,3.76
2022-09-23T02:28:20.591Z,3.73
2022-09-23T02:31:12.022Z,3.70
2022-09-23T02:34:24.352Z,3.70
2022-09-23T02:37:25.011Z,3.73
2022-09-23T02:40:14.706Z,3.69
2022-09-23T02:43:39.285Z,3.66
2022-09-23T02:46:08.143Z,3.65
2022-09-23T02:49:16.730Z,3.62
2022-09-23T02:51:45.540Z,3.59
2022-09-23T02:54:22.824Z,3.58
2022-09-23T02:56:50.135Z,3.59
2022-09-23T02:59:22.474Z,3.57
2022-09-23T03:02:07.121Z,3.58
2022-09-23T03:04:38.474Z,3.58
2022-09-23T03:07:33.538Z,3.57
2022-09-23T03:10:41.226Z,3.52
2022-09-23T03:13:39.632Z,3.48
2022-09-23T03:16:17.407Z,3.47
2022-09-23T03:19:12.957Z,3.46
2022-09-23T03:21:58.591Z,3.43
2022-09-23T03:24:31.555Z,3.45
2022-09-23T03:27:13.765Z,3.42
2022-09-23T03:29:52.177Z,3.38
2022-09-23T03:32:28.090Z,3.37
2022-09-23T03:35:03.524Z,3.35
2022-09-23T03:37:55.378Z,3.34
2022-09-23T03:40:41.942Z,3.32
2022-09-23T03:43:13.380Z,3.27
2022-09-23T03:45:42.696Z,3.25
2022-09-23T03:48:09.778Z,3.25
2022-09-23T03:50:37.192Z,3.21
2022-09-23T03:53:04.098Z,3.15
2022-09-23T03:55:32.276Z,3.15
2022-09-23T03:58:00.294Z,3.13
2022-09-23T04:00:27.791Z,3.17
2022-09-23T04:02:54.748Z,3.17
2022-09-23T04:05:21.717Z,3.16
2022-09-23T04:07:49.251Z,3.17
2022-09-23T04:10:16.340Z,3.14
2022-09-23T04:12:43.288Z,3.13
2022-09-23T04:15:11.087Z,3.07
2022-09-23T04:17:38.160Z,3.02
2022-09-23T04:20:06.415Z,2.96
2022-09-23T04:22:35.127Z,2.96
2022-09-23T04:25:02.405Z,3.00
2022-09-23T04:27:30.589Z,3.00
2022-09-23T04:30:00.056Z,3.01
2022-09-23T04:32:27.050Z,3.01
2022-09-23T04:34:53.981Z,2.97
2022-09-23T04:37:20.906Z,2.93
2022-09-23T04:39:47.813Z,2.92
2022-09-23T04:42:16.772Z,2.93
2022-09-23T04:44:43.675Z,2.93
2022-09-23T04:47:10.578Z,2.91
2022-09-23T04:49:38.170Z,2.91
2022-09-23T04:52:05.940Z,2.93
2022-09-23T04:54:33.231Z,2.93
2022-09-23T04:57:00.206Z,2.92
2022-09-23T04:59:27.160Z,2.91
2022-09-23T05:01:55.510Z,2.89
2022-09-23T05:04:22.900Z,2.88
2022-09-23T05:06:49.819Z,2.86
2022-09-23T05:09:17.954Z,2.85
2022-09-23T05:11:46.240Z,2.84
2022-09-23T05:14:13.723Z,2.85
2022-09-23T05:16:41.008Z,2.87
2022-09-23T05:19:08.108Z,2.88
2022-09-23T05:21:35.275Z,2.92
2022-09-23T05:24:02.618Z,2.97
2022-09-23T05:26:32.457Z,3.02
2022-09-23T05:29:00.374Z,3.05
2022-09-23T05:31:30.077Z,3.15
2022-09-23T05:34:02.477Z,3.20
2022-09-23T05:36:37.853Z,3.26
2022-09-23T05:39:08.032Z,3.34
2022-09-23T05:41:35.417Z,3.40
2022-09-23T05:44:02.740Z,3.46
2022-09-23T05:46:31.952Z,3.51
2022-09-23T05:49:02.868Z,3.58
2022-09-23T05:51:34.393Z,3.64
2022-09-23T05:54:05.723Z,3.69
2022-09-23T05:56:35.737Z,3.75
2022-09-23T05:59:05.688Z,3.81
2022-09-23T06:01:36.765Z,3.85
2022-09-23T06:04:08.246Z,3.93
2022-09-23T06:06:41.597Z,4.02
2022-09-23T06:09:14.738Z,4.16
2022-09-23T06:11:42.580Z,4.27
2022-09-23T06:14:14.913Z,4.42
2022-09-23T06:16:43.170Z,4.53
2022-09-23T06:19:10.574Z,4.64
2022-09-23T06:21:40.981Z,4.86
2022-09-23T06:24:09.492Z,5.15
2022-09-23T06:26:38.491Z,5.39
2022-09-23T06:29:12.136Z,5.65
2022-09-23T06:31:41.274Z,5.88
2022-09-23T06:34:13.946Z,6.19
2022-09-23T06:36:45.739Z,6.37
2022-09-23T06:39:15.786Z,6.47
2022-09-23T06:41:44.756Z,6.71
2022-09-23T06:44:11.751Z,7.02
2022-09-23T06:46:38.727Z,7.32
2022-09-23T06:49:06.357Z,7.59
2022-09-23T06:51:33.486Z,7.88
2022-09-23T06:54:00.559Z,8.08
2022-09-23T06:56:27.692Z,8.32
2022-09-23T06:58:54.853Z,8.41
2022-09-23T07:01:22.948Z,8.66
2022-09-23T07:03:50.005Z,8.84
2022-09-23T07:06:17.498Z,9.01
2022-09-23T07:08:47.512Z,9.16
2022-09-23T07:11:16.303Z,8.96
2022-09-23T07:13:43.713Z,9.24
2022-09-23T07:16:11.749Z,9.51
2022-09-23T07:18:40.888Z,9.41
2022-09-23T07:21:17.066Z,9.42
2022-09-23T07:23:53.671Z,9.69
2022-09-23T07:26:22.827Z,10.07
2022-09-23T07:28:56.741Z,10.38
2022-09-23T07:31:35.613Z,10.79
2022-09-23T07:34:11.824Z,10.87
2022-09-23T07:36:41.178Z,10.98
2022-09-23T07:39:13.369Z,11.20
2022-09-23T07:41:44.515Z,10.85
2022-09-23T07:44:12.809Z,10.86
2022-09-23T07:46:40.306Z,11.02
2022-09-23T07:49:08.124Z,11.25
2022-09-23T07:51:40.115Z,11.73
2022-09-23T07:54:14.394Z,12.02
2022-09-23T07:56:44.176Z,12.18
2022-09-23T07:59:18.625Z,12.12
2022-09-23T08:01:52.906Z,12.21
2022-09-23T08:04:28.445Z,12.35
2022-09-23T08:07:01.345Z,12.54
2022-09-23T08:09:43.394Z,12.55
2022-09-23T08:12:18.091Z,12.49
2022-09-23T08:14:45.788Z,12.77
2022-09-23T08:17:13.946Z,13.16
2022-09-23T08:19:41.184Z,13.51
2022-09-23T08:22:08.652Z,13.57
2022-09-23T08:24:35.846Z,13.44
2022-09-23T08:27:02.847Z,13.61
2022-09-23T08:29:30.100Z,13.68
2022-09-23T08:31:57.449Z,14.01
2022-09-23T08:34:28.789Z,14.10
2022-09-23T08:36:55.832Z,14.42
2022-09-23T08:39:23.315Z,14.38
2022-09-23T08:42:02.045Z,13.87
2022-09-23T08:44:54.016Z,13.99
2022-09-23T08:47:50.813Z,13.93
2022-09-23T08:50:51.202Z,14.29
2022-09-23T08:53:37.700Z,14.36
2022-09-23T08:56:18.414Z,13.90
2022-09-23T08:59:00.183Z,13.85
2022-09-23T09:01:51.978Z,14.03
2022-09-23T09:04:44.518Z,14.30
2022-09-23T09:07:38.237Z,14.27
2022-09-23T09:10:46.766Z,14.33
2022-09-23T09:13:55.680Z,14.49
2022-09-23T09:17:01.271Z,14.37
2022-09-23T09:19:52.657Z,14.11
2022-09-23T09:22:56.155Z,14.11
2022-09-23T09:25:52.332Z,14.48
2022-09-23T09:28:42.635Z,14.56
2022-09-23T09:31:31.091Z,14.68
2022-09-23T09:34:26.673Z,14.97
2022-09-23T09:37:44.758Z,15.23
2022-09-23T09:40:17.432Z,15.26
2022-09-23T09:42:50.471Z,15.22
2022-09-23T09:46:03.112Z,15.26
2022-09-23T09:49:22.101Z,15.01
2022-09-23T09:52:29.746Z,15.09
2022-09-23T09:55:27.565Z,15.34
2022-09-23T09:58:05.849Z,15.21
2022-09-23T10:00:43.346Z,15.27
2022-09-23T10:03:13.362Z,15.58
2022-09-23T10:05:54.575Z,15.92
2022-09-23T10:08:35.408Z,15.90
2022-09-23T10:11:17.466Z,15.80
2022-09-23T10:18:55.919Z,15.53
2022-09-23T10:21:34.794Z,15.31
2022-09-23T10:24:07.662Z,15.48
2022-09-23T10:26:51.308Z,15.58
2022-09-23T10:29:37.886Z,15.57
2022-09-23T10:32:25.985Z,15.72
2022-09-23T10:35:09.536Z,15.88
2022-09-23T10:37:49.527Z,15.93
2022-09-23T10:41:02.061Z,15.80
2022-09-23T10:44:15.213Z,15.77
2022-09-23T10:47:21.547Z,15.65
2022-09-23T10:50:33.149Z,15.73
2022-09-23T10:53:18.612Z,15.86
2022-09-23T10:56:36.641Z,16.04
2022-09-23T10:59:44.955Z,16.02
2022-09-23T11:02:46.116Z,16.08
2022-09-23T11:05:26.547Z,16.22
2022-09-23T11:08:53.052Z,16.16
2022-09-23T11:11:50.880Z,15.99
2022-09-23T11:15:16.604Z,15.80
2022-09-23T11:18:20.354Z,15.59
2022-09-23T11:21:23.594Z,15.77
2022-09-23T11:24:31.327Z,15.71
2022-09-23T11:27:40.692Z,15.79
2022-09-23T11:30:13.363Z,15.96
2022-09-23T11:35:57.666Z,15.94
2022-09-23T11:38:41.122Z,15.86
2022-09-23T11:41:37.196Z,15.92
2022-09-23T11:44:23.526Z,16.12
2022-09-23T11:47:11.337Z,15.83
2022-09-23T11:50:00.386Z,15.90
2022-09-23T11:52:45.235Z,15.84
2022-09-23T11:55:32.439Z,15.81
2022-09-23T11:58:33.327Z,15.83
2022-09-23T12:01:16.052Z,15.73
2022-09-23T12:04:14.802Z,15.71
2022-09-23T12:07:10.179Z,15.77
2022-09-23T12:10:05.590Z,15.97
2022-09-23T12:13:19.106Z,15.87
2022-09-23T12:16:26.551Z,15.86
2022-09-23T12:19:42.895Z,15.70
2022-09-23T12:22:52.799Z,15.87
2022-09-23T12:25:47.052Z,15.96
2022-09-23T12:28:27.172Z,16.01
2022-09-23T12:31:02.188Z,16.03
2022-09-23T12:33:35.824Z,16.14
2022-09-23T12:36:10.583Z,16.24
2022-09-23T12:39:13.862Z,16.35
2022-09-23T12:41:54.027Z,16.28
2022-09-23T12:44:50.681Z,16.10
2022-09-23T12:47:28.964Z,16.09
2022-09-23T12:49:57.274Z,16.30
2022-09-23T12:52:33.115Z,16.31
2022-09-23T12:55:24.604Z,16.17
2022-09-23T12:57:51.602Z,16.17
2022-09-23T13:00:27.442Z,16.37
2022-09-23T13:03:19.852Z,16.62
2022-09-23T13:06:20.348Z,16.67
2022-09-23T13:08:50.153Z,16.52
2022-09-23T13:11:30.753Z,16.59
2022-09-23T13:14:05.396Z,16.80
2022-09-23T13:16:43.881Z,16.86
2022-09-23T13:19:25.597Z,16.94
2022-09-23T13:22:11.120Z,16.94
2022-09-23T13:24:54.046Z,16.82
2022-09-23T13:27:32.863Z,16.96
2022-09-23T13:30:28.330Z,17.00
2022-09-23T13:33:34.961Z,16.89
2022-09-23T13:36:04.390Z,16.97
2022-09-23T13:38:33.204Z,17.11
2022-09-23T13:41:22.307Z,16.84
2022-09-23T13:43:59.250Z,17.08
2022-09-23T13:46:35.067Z,17.25
2022-09-23T13:49:03.014Z,16.80
2022-09-23T13:51:36.834Z,16.92
2022-09-23T13:54:05.360Z,17.19
2022-09-23T13:56:36.678Z,17.38
2022-09-23T13:59:36.672Z,17.47
2022-09-23T14:02:17.028Z,17.52
2022-09-23T14:04:44.999Z,17.63
2022-09-23T14:07:19.123Z,17.62
2022-09-23T14:09:55.653Z,17.77
2022-09-23T14:12:24.266Z,17.98
2022-09-23T14:14:53.231Z,17.99
2022-09-23T14:17:23.533Z,17.80
2022-09-23T14:19:51.718Z,17.64
2022-09-23T14:22:27.100Z,17.59
2022-09-23T14:24:58.543Z,17.78
2022-09-23T14:27:36.255Z,18.18
2022-09-23T14:30:05.013Z,18.43
2022-09-23T14:32:33.290Z,18.27
2022-09-23T14:35:03.942Z,17.97
2022-09-23T14:37:55.262Z,18.11
2022-09-23T14:40:29.909Z,18.01
2022-09-23T14:43:22.051Z,17.70
2022-09-23T14:45:56.609Z,17.72
2022-09-23T14:48:36.429Z,17.78
2022-09-23T14:51:16.044Z,17.59
2022-09-23T14:53:46.433Z,17.56
2022-09-23T14:56:24.693Z,17.56
2022-09-23T14:59:00.106Z,17.42
2022-09-23T15:01:33.009Z,17.49
2022-09-23T15:04:15.280Z,17.50
2022-09-23T15:06:53.573Z,17.53
2022-09-23T15:09:31.302Z,17.47
2022-09-23T15:12:21.837Z,17.42
2022-09-23T15:14:56.792Z,17.44
2022-09-23T15:17:23.673Z,17.42
2022-09-23T15:20:02.490Z,17.17
2022-09-23T15:22:29.702Z,16.92
2022-09-23T15:25:30.323Z,16.63
2022-09-23T15:28:18.341Z,16.44
2022-09-23T15:30:45.770Z,16.29
2022-09-23T15:33:15.304Z,16.14
2022-09-23T15:35:49.576Z,16.03
2022-09-23T15:38:17.866Z,15.91
2022-09-23T15:40:45.223Z,15.75
2022-09-23T15:43:26.978Z,15.61
2022-09-23T15:46:16.740Z,15.48
2022-09-23T15:49:04.878Z,15.24
2022-09-23T15:51:32.229Z,15.10
2022-09-23T15:53:59.223Z,15.06
2022-09-23T15:56:29.255Z,14.99
2022-09-23T15:58:56.185Z,14.89
2022-09-23T16:01:31.438Z,14.79
2022-09-23T16:04:01.220Z,14.69
2022-09-23T16:06:28.196Z,14.58
2022-09-23T16:08:55.761Z,14.52
2022-09-23T16:11:36.814Z,14.51
2022-09-23T16:14:04.187Z,14.46
2022-09-23T16:16:52.216Z,14.37
2022-09-23T16:19:19.527Z,14.32
2022-09-23T16:21:46.588Z,14.30
2022-09-23T16:24:19.548Z,14.22
2022-09-23T16:26:48.703Z,14.18
2022-09-23T16:29:15.862Z,14.16
2022-09-23T16:31:43.023Z,14.12
2022-09-23T16:34:10.150Z,14.05
2022-09-23T16:36:43.557Z,13.94
2022-09-23T16:39:14.248Z,13.89
2022-09-23T16:41:42.895Z,13.77
2022-09-23T16:44:12.615Z,13.66
2022-09-23T16:46:42.962Z,13.53
2022-09-23T16:49:13.786Z,13.46
2022-09-23T16:51:41.092Z,13.33
2022-09-23T16:54:13.268Z,13.17
2022-09-23T16:56:46.442Z,13.02
2022-09-23T16:59:16.391Z,12.91
2022-09-23T17:02:02.556Z,12.77
2022-09-23T17:04:29.716Z,12.61
2022-09-23T17:06:56.949Z,12.50
2022-09-23T17:09:28.869Z,12.39
2022-09-23T17:12:38.880Z,12.32
2022-09-23T17:15:07.790Z,12.18
2022-09-23T17:17:39.960Z,12.09
2022-09-23T17:20:07.733Z,11.99
2022-09-23T17:22:34.829Z,11.91
2022-09-23T17:25:03.781Z,11.79
2022-09-23T17:27:31.932Z,11.69
2022-09-23T17:29:59.526Z,11.61
2022-09-23T17:32:27.360Z,11.52
2022-09-23T17:34:54.656Z,11.45
2022-09-23T17:37:21.895Z,11.39
2022-09-23T17:39:48.859Z,11.34
2022-09-23T17:42:19.742Z,11.25
2022-09-23T17:44:47.523Z,11.17
2022-09-23T17:47:14.641Z,11.09
2022-09-23T17:49:42.175Z,11.04
2022-09-23T17:52:09.271Z,11.02
2022-09-23T17:54:36.656Z,10.95
2022-09-23T17:57:03.762Z,10.91
2022-09-23T17:59:30.741Z,10.86
2022-09-23T18:01:57.944Z,10.80
2022-09-23T18:04:24.995Z,10.74
2022-09-23T18:06:51.938Z,10.72
2022-09-23T18:09:19.625Z,10.70
2022-09-23T18:11:49.750Z,10.67
2022-09-23T18:14:23.433Z,10.67
2022-09-23T18:16:53.913Z,10.63
2022-09-23T18:19:27.002Z,10.59
2022-09-23T18:21:57.358Z,10.57
2022-09-23T18:24:32.171Z,10.56
2022-09-23T18:27:00.845Z,10.60
2022-09-23T18:29:28.712Z,10.59
2022-09-23T18:31:55.938Z,10.58
2022-09-23T18:34:23.694Z,10.55
2022-09-23T18:36:50.769Z,10.51
2022-09-23T18:39:18.071Z,10.46
2022-09-23T18:41:45.046Z,10.44
2022-09-23T18:44:11.985Z,10.44
2022-09-23T18:46:39.038Z,10.43
2022-09-23T18:49:24.442Z,10.42
2022-09-23T18:51:55.915Z,10.41
2022-09-23T18:54:27.903Z,10.35
2022-09-23T18:56:56.666Z,10.35
2022-09-23T18:59:29.680Z,10.33
2022-09-23T19:01:57.888Z,10.27
2022-09-23T19:04:27.400Z,10.21
2022-09-23T19:06:57.259Z,10.15
2022-09-23T19:09:25.035Z,10.08
2022-09-23T19:11:53.840Z,10.05
2022-09-23T19:14:20.966Z,9.99
2022-09-23T19:16:51.188Z,9.91
2022-09-23T19:19:18.248Z,9.88
2022-09-23T19:21:45.460Z,9.84
2022-09-23T19:24:16.064Z,9.79
2022-09-23T19:26:44.571Z,9.77
2022-09-23T19:29:19.833Z,9.73
2022-09-23T19:31:46.886Z,9.71
2022-09-23T19:34:26.011Z,9.70
2022-09-23T19:37:01.440Z,9.66
2022-09-23T19:39:31.606Z,9.61
2022-09-23T19:41:59.134Z,9.55
2022-09-23T19:44:27.185Z,9.52
2022-09-23T19:46:56.819Z,9.50
2022-09-23T19:49:25.728Z,9.45
2022-09-23T19:51:56.049Z,9.40
2022-09-23T19:54:26.620Z,9.36
2022-09-23T19:56:53.673Z,9.32
2022-09-23T19:59:20.711Z,9.31
2022-09-23T20:01:49.020Z,9.30
2022-09-23T20:04:17.248Z,9.28
2022-09-23T20:06:45.999Z,9.26
2022-09-23T20:09:13.266Z,9.23
2022-09-23T20:11:44.208Z,9.19
2022-09-23T20:14:12.011Z,9.13
2022-09-23T20:16:39.019Z,9.11
2022-09-23T20:19:06.586Z,9.09
2022-09-23T20:21:34.368Z,9.07
2022-09-23T20:24:07.635Z,9.07
2022-09-23T20:26:53.279Z,9.06
2022-09-23T20:29:20.199Z,9.03
2022-09-23T20:31:47.733Z,9.02
2022-09-23T20:34:15.191Z,9.01
2022-09-23T20:36:42.582Z,8.99
2022-09-23T20:39:10.830Z,8.96
2022-09-23T20:41:39.460Z,8.94
2022-09-23T20:44:14.410Z,8.97
2022-09-23T20:46:48.248Z,9.00
2022-09-23T20:49:17.868Z,9.00
2022-09-23T20:51:47.619Z,8.98
2022-09-23T20:54:15.134Z,8.95
2022-09-23T20:56:42.145Z,8.98
2022-09-23T20:59:10.881Z,8.98
2022-09-23T21:01:37.831Z,8.98
2022-09-23T21:04:05.949Z,8.94
2022-09-23T21:06:38.906Z,8.92
2022-09-23T21:09:07.349Z,8.93
2022-09-23T21:11:34.781Z,8.93
2022-09-23T21:14:02.655Z,8.93
2022-09-23T21:16:30.686Z,8.93
2022-09-23T21:18:59.113Z,8.91
2022-09-23T21:21:26.931Z,8.94
2022-09-23T21:23:53.894Z,8.95
2022-09-23T21:26:26.752Z,8.96
2022-09-23T21:29:01.176Z,8.98
2022-09-23T21:31:36.023Z,8.98
2022-09-23T21:34:11.793Z,9.02
2022-09-23T21:36:43.350Z,9.04
2022-09-23T21:39:12.702Z,9.04
2022-09-23T21:41:40.208Z,9.06
2022-09-23T21:44:08.623Z,9.06
2022-09-23T21:46:38.232Z,9.08
2022-09-23T21:49:06.011Z,9.08
2022-09-23T21:51:42.952Z,9.06
2022-09-23T21:54:16.867Z,9.08
2022-09-23T21:56:45.133Z,9.09
2022-09-23T21:59:12.524Z,9.09
2022-09-23T22:01:44.934Z,9.10
2022-09-23T22:04:18.727Z,9.09
2022-09-23T22:06:46.963Z,9.08
2022-09-23T22:09:18.388Z,9.08
2022-09-23T22:12:08.556Z,9.05
2022-09-23T22:14:36.605Z,9.05
2022-09-23T22:17:08.160Z,9.02
2022-09-23T22:19:44.207Z,9.02
2022-09-23T22:22:17.776Z,8.99
2022-09-23T22:24:48.009Z,8.96
2022-09-23T22:27:19.647Z,8.96
2022-09-23T22:30:05.556Z,8.93
2022-09-23T22:32:40.590Z,8.94
2022-09-23T22:35:17.928Z,8.96
2022-09-23T22:37:46.025Z,8.91
2022-09-23T22:40:15.667Z,8.90
2022-09-23T22:42:43.813Z,8.88
2022-09-23T22:45:12.163Z,8.85
2022-09-23T22:47:43.540Z,8.84
2022-09-23T22:50:11.462Z,8.84
2022-09-23T22:52:38.731Z,8.87
2022-09-23T22:55:09.994Z,8.88
2022-09-23T22:57:37.669Z,8.88
2022-09-23T23:00:08.378Z,8.90
2022-09-23T23:02:35.501Z,8.91
2022-09-23T23:05:02.671Z,8.88
2022-09-23T23:07:29.667Z,8.85
2022-09-23T23:09:56.584Z,8.82
2022-09-23T23:12:24.509Z,8.80
2022-09-23T23:14:51.436Z,8.77
2022-09-23T23:17:18.921Z,8.80
2022-09-23T23:19:46.442Z,8.78
2022-09-23T23:22:13.383Z,8.78
2022-09-23T23:24:40.348Z,8.73
2022-09-23T23:27:07.296Z,8.69
2022-09-23T23:29:34.233Z,8.68
2022-09-23T23:32:01.420Z,8.68
2022-09-23T23:34:28.573Z,8.66
2022-09-23T23:36:55.856Z,8.63
2022-09-23T23:39:25.730Z,8.58
2022-09-23T23:41:56.097Z,8.55
2022-09-23T23:44:26.273Z,8.53
2022-09-23T23:46:55.030Z,8.52
2022-09-23T23:49:22.916Z,8.49
2022-09-23T23:51:50.689Z,8.46
2022-09-23T23:54:17.715Z,8.46
2022-09-23T23:56:44.732Z,8.45
2022-09-23T23:59:11.740Z,8.47
